createdAt,value
2022-08-11T00:01:45.419Z,14.47
2022-08-11T00:04:51.497Z,14.51
2022-08-11T00:07:58.473Z,14.56
2022-08-11T00:11:05.091Z,14.58
2022-08-11T00:14:16.236Z,14.61
2022-08-11T00:17:27.772Z,14.65
2022-08-11T00:20:35.182Z,14.68
2022-08-11T00:23:44.182Z,14.68
2022-08-11T00:26:50.964Z,14.68
2022-08-11T00:29:57.827Z,14.69
2022-08-11T00:33:03.552Z,14.65
2022-08-11T00:36:10.221Z,14.67
2022-08-11T00:39:17.080Z,14.69
2022-08-11T00:42:27.687Z,14.72
2022-08-11T00:45:40.272Z,14.79
2022-08-11T00:48:50.550Z,14.88
2022-08-11T00:52:08.470Z,14.91
2022-08-11T00:55:31.163Z,14.99
2022-08-11T00:58:56.468Z,14.99
2022-08-11T01:02:14.347Z,14.94
2022-08-11T01:05:33.678Z,14.92
2022-08-11T01:08:53.005Z,14.92
2022-08-11T01:12:12.256Z,14.90
2022-08-11T01:15:28.413Z,14.86
2022-08-11T01:18:51.106Z,14.83
2022-08-11T01:22:16.434Z,14.79
2022-08-11T01:25:57.626Z,14.76
2022-08-11T01:29:18.330Z,14.70
2022-08-11T01:32:39.610Z,14.62
2022-08-11T01:35:59.350Z,14.56
2022-08-11T01:39:41.675Z,14.53
2022-08-11T01:43:20.727Z,14.48
2022-08-11T01:46:29.357Z,14.47
2022-08-11T01:50:08.242Z,14.47
2022-08-11T01:53:11.486Z,14.47
2022-08-11T01:56:26.568Z,14.46
2022-08-11T01:59:36.309Z,14.44
2022-08-11T02:02:50.123Z,14.46
2022-08-11T02:06:23.642Z,14.48
2022-08-11T02:09:49.480Z,14.50
2022-08-11T02:12:58.275Z,14.43
2022-08-11T02:16:13.614Z,14.29
2022-08-11T02:19:42.462Z,14.13
2022-08-11T02:23:14.108Z,13.95
2022-08-11T02:26:43.409Z,13.75
2022-08-11T02:29:54.003Z,13.61
2022-08-11T02:33:24.332Z,13.49
2022-08-11T02:36:38.147Z,13.32
2022-08-11T02:39:47.386Z,13.19
2022-08-11T02:43:03.799Z,13.08
2022-08-11T02:46:19.273Z,12.97
2022-08-11T02:49:59.937Z,12.89
2022-08-11T02:53:15.128Z,12.80
2022-08-11T02:56:28.567Z,12.72
2022-08-11T02:59:51.694Z,12.64
2022-08-11T03:03:16.443Z,12.54
2022-08-11T03:06:33.690Z,12.43
2022-08-11T03:09:48.303Z,12.30
2022-08-11T03:13:15.831Z,12.18
2022-08-11T03:16:43.478Z,12.10
2022-08-11T03:19:55.180Z,12.08
2022-08-11T03:23:03.042Z,12.09
2022-08-11T03:26:16.053Z,12.11
2022-08-11T03:29:28.741Z,12.14
2022-08-11T03:32:41.554Z,12.20
2022-08-11T03:35:55.502Z,12.22
2022-08-11T03:39:10.544Z,12.22
2022-08-11T03:42:21.963Z,12.21
2022-08-11T03:45:32.210Z,12.22
2022-08-11T03:48:44.216Z,12.22
2022-08-11T03:51:54.474Z,12.19
2022-08-11T03:55:04.853Z,12.20
2022-08-11T03:58:35.877Z,12.23
2022-08-11T04:02:00.573Z,12.33
2022-08-11T04:05:28.368Z,12.46
2022-08-11T04:08:51.284Z,12.63
2022-08-11T04:12:34.662Z,12.82
2022-08-11T04:16:12.185Z,13.08
2022-08-11T04:19:40.830Z,13.32
2022-08-11T04:22:55.386Z,13.51
2022-08-11T04:26:18.726Z,13.64
2022-08-11T04:29:36.306Z,13.76
2022-08-11T04:33:24.481Z,13.94
2022-08-11T04:37:00.231Z,14.13
2022-08-11T04:40:15.375Z,14.32
2022-08-11T04:44:05.597Z,14.53
2022-08-11T04:48:03.521Z,14.78
2022-08-11T04:51:41.724Z,15.00
2022-08-11T04:55:13.415Z,15.20
2022-08-11T04:58:40.497Z,15.44
2022-08-11T05:01:56.718Z,15.65
2022-08-11T05:05:28.067Z,15.85
2022-08-11T05:08:47.254Z,16.02
2022-08-11T05:12:03.421Z,16.18
2022-08-11T05:15:31.001Z,16.34
2022-08-11T05:19:07.688Z,16.54
2022-08-11T05:22:47.108Z,16.73
2022-08-11T05:26:46.841Z,16.91
2022-08-11T05:30:01.223Z,17.11
2022-08-11T05:33:26.009Z,17.31
2022-08-11T05:36:37.510Z,17.53
2022-08-11T05:40:04.177Z,17.72
2022-08-11T05:43:30.421Z,17.99
2022-08-11T05:47:00.482Z,18.28
2022-08-11T05:50:32.914Z,18.56
2022-08-11T05:54:01.445Z,18.85
2022-08-11T05:57:07.650Z,19.13
2022-08-11T06:00:15.741Z,19.40
2022-08-11T06:03:26.533Z,19.64
2022-08-11T06:06:32.499Z,19.90
2022-08-11T06:09:40.323Z,20.10
2022-08-11T06:12:46.811Z,20.29
2022-08-11T06:15:53.316Z,20.53
2022-08-11T06:19:00.453Z,20.74
2022-08-11T06:22:06.769Z,20.97
2022-08-11T06:25:12.962Z,21.20
2022-08-11T06:28:21.431Z,21.42
2022-08-11T06:31:27.774Z,21.71
2022-08-11T06:34:42.189Z,21.97
2022-08-11T06:37:50.658Z,22.30
2022-08-11T06:41:23.589Z,22.64
2022-08-11T06:44:36.182Z,22.94
2022-08-11T06:47:47.916Z,23.20
2022-08-11T06:51:12.304Z,23.47
2022-08-11T06:54:18.299Z,23.70
2022-08-11T06:57:41.619Z,23.83
2022-08-11T07:00:48.961Z,24.14
2022-08-11T07:03:58.778Z,24.36
2022-08-11T07:07:31.106Z,24.58
2022-08-11T07:11:01.061Z,24.79
2022-08-11T07:14:24.506Z,25.03
2022-08-11T07:17:30.149Z,25.23
2022-08-11T07:20:57.392Z,25.41
2022-08-11T07:24:34.501Z,25.55
2022-08-11T07:28:15.487Z,25.80
2022-08-11T07:31:25.595Z,25.88
2022-08-11T07:34:34.236Z,26.02
2022-08-11T07:37:42.326Z,26.03
2022-08-11T07:40:50.317Z,26.09
2022-08-11T07:43:57.203Z,26.35
2022-08-11T07:47:20.427Z,26.42
2022-08-11T07:50:44.178Z,26.41
2022-08-11T07:53:58.491Z,26.42
2022-08-11T07:58:14.648Z,26.42
2022-08-11T08:01:21.771Z,26.55
2022-08-11T08:04:47.446Z,26.64
2022-08-11T08:08:10.920Z,26.91
2022-08-11T08:11:35.495Z,27.08
2022-08-11T08:14:59.194Z,26.98
2022-08-11T08:18:26.162Z,26.83
2022-08-11T08:21:33.387Z,26.64
2022-08-11T08:24:39.233Z,26.67
2022-08-11T08:27:45.922Z,26.64
2022-08-11T08:30:52.682Z,26.59
2022-08-11T08:33:58.298Z,26.71
2022-08-11T08:37:15.846Z,26.82
2022-08-11T08:40:29.628Z,26.81
2022-08-11T08:43:49.246Z,26.76
2022-08-11T08:46:57.659Z,26.66
2022-08-11T08:50:05.708Z,26.64
2022-08-11T08:53:11.383Z,26.65
2022-08-11T08:56:18.640Z,26.63
2022-08-11T08:59:47.769Z,26.56
2022-08-11T09:02:55.534Z,26.55
2022-08-11T09:06:01.027Z,26.58
2022-08-11T09:09:08.307Z,26.65
2022-08-11T09:12:14.355Z,26.75
2022-08-11T09:15:20.252Z,26.82
2022-08-11T09:18:33.116Z,26.93
2022-08-11T09:21:48.900Z,27.18
2022-08-11T09:25:14.451Z,27.45
2022-08-11T09:28:22.380Z,27.66
2022-08-11T09:31:34.529Z,27.76
2022-08-11T09:34:46.551Z,27.70
2022-08-11T09:38:09.619Z,27.84
2022-08-11T09:41:15.928Z,27.98
2022-08-11T09:44:40.563Z,28.21
2022-08-11T09:47:46.337Z,28.46
2022-08-11T09:50:55.295Z,28.51
2022-08-11T09:54:03.981Z,28.70
2022-08-11T09:57:27.466Z,28.75
2022-08-11T10:00:34.416Z,28.89
2022-08-11T10:03:42.408Z,28.98
2022-08-11T10:07:04.240Z,29.09
2022-08-11T10:10:12.145Z,29.44
2022-08-11T10:14:10.550Z,29.67
2022-08-11T10:16:46.256Z,29.74
2022-08-11T10:20:04.475Z,29.87
2022-08-11T10:23:29.913Z,30.35
2022-08-11T10:26:53.649Z,30.82
2022-08-11T10:30:18.833Z,31.26
2022-08-11T10:33:47.572Z,31.40
2022-08-11T10:37:03.788Z,31.37
2022-08-11T10:40:11.253Z,31.16
2022-08-11T10:44:02.170Z,31.07
2022-08-11T10:46:59.852Z,31.33
2022-08-11T10:50:26.573Z,31.54
2022-08-11T10:53:49.984Z,31.73
2022-08-11T10:57:13.355Z,32.02
2022-08-11T11:00:19.339Z,32.27
2022-08-11T11:03:26.746Z,32.47
2022-08-11T11:06:34.977Z,32.31
2022-08-11T11:09:44.521Z,32.07
2022-08-11T11:13:14.363Z,32.14
2022-08-11T11:16:40.043Z,31.85
2022-08-11T11:19:46.942Z,31.84
2022-08-11T11:22:54.827Z,32.17
2022-08-11T11:26:11.340Z,32.82
2022-08-11T11:29:29.105Z,33.41
2022-08-11T11:32:47.632Z,33.49
2022-08-11T11:36:01.826Z,33.05
2022-08-11T11:39:08.074Z,32.46
2022-08-11T11:42:18.844Z,31.86
2022-08-11T11:45:25.911Z,31.48
2022-08-11T11:48:31.954Z,31.64
2022-08-11T11:51:39.100Z,31.96
2022-08-11T11:54:45.551Z,32.15
2022-08-11T11:58:08.802Z,32.23
2022-08-11T12:01:25.315Z,32.03
2022-08-11T12:04:31.273Z,31.65
2022-08-11T12:08:05.018Z,31.14
2022-08-11T12:11:37.917Z,30.85
2022-08-11T12:14:44.308Z,30.75
2022-08-11T12:17:52.808Z,30.63
2022-08-11T12:20:58.682Z,30.92
2022-08-11T12:24:22.723Z,31.43
2022-08-11T12:27:38.931Z,31.77
2022-08-11T12:30:49.577Z,31.69
2022-08-11T12:34:06.675Z,31.60
2022-08-11T12:37:13.938Z,31.84
2022-08-11T12:41:11.826Z,32.20
2022-08-11T12:44:27.764Z,32.69
2022-08-11T12:48:14.015Z,32.72
2022-08-11T12:52:06.816Z,32.23
2022-08-11T12:55:13.476Z,32.13
2022-08-11T12:58:21.246Z,32.15
2022-08-11T13:01:44.357Z,32.11
2022-08-11T13:04:56.305Z,32.28
2022-08-11T13:08:03.417Z,32.62
2022-08-11T13:11:54.608Z,32.90
2022-08-11T13:15:03.664Z,33.15
2022-08-11T13:18:09.426Z,33.24
2022-08-11T13:21:20.454Z,33.45
2022-08-11T13:24:28.915Z,33.62
2022-08-11T13:27:35.021Z,33.40
2022-08-11T13:30:59.898Z,33.38
2022-08-11T13:34:09.326Z,33.34
2022-08-11T13:37:16.603Z,33.23
2022-08-11T13:40:33.311Z,32.71
2022-08-11T13:43:48.779Z,32.06
2022-08-11T13:46:55.651Z,31.91
2022-08-11T13:50:03.719Z,32.12
2022-08-11T13:53:09.771Z,32.15
2022-08-11T13:56:18.885Z,32.39
2022-08-11T13:59:31.345Z,32.77
2022-08-11T14:02:43.336Z,33.20
2022-08-11T14:05:51.945Z,33.48
2022-08-11T14:08:57.813Z,33.31
2022-08-11T14:12:24.535Z,33.36
2022-08-11T14:15:33.258Z,33.57
2022-08-11T14:18:41.419Z,33.95
2022-08-11T14:22:07.964Z,33.79
2022-08-11T14:25:15.441Z,33.61
2022-08-11T14:28:32.924Z,33.77
2022-08-11T14:31:42.540Z,33.74
2022-08-11T14:34:48.076Z,33.54
2022-08-11T14:37:53.910Z,33.61
2022-08-11T14:41:17.266Z,33.62
2022-08-11T14:44:41.059Z,33.59
2022-08-11T14:47:48.848Z,33.44
2022-08-11T14:50:54.553Z,33.37
2022-08-11T14:54:14.732Z,33.68
2022-08-11T14:57:21.437Z,34.14
2022-08-11T15:00:47.666Z,34.20
2022-08-11T15:04:02.655Z,33.96
2022-08-11T15:07:20.284Z,33.91
2022-08-11T15:10:28.534Z,34.32
2022-08-11T15:13:36.813Z,34.39
2022-08-11T15:17:01.789Z,33.47
2022-08-11T15:20:27.345Z,32.76
2022-08-11T15:23:51.093Z,32.84
2022-08-11T15:27:15.384Z,33.14
2022-08-11T15:30:38.749Z,33.47
2022-08-11T15:34:03.054Z,33.92
2022-08-11T15:37:31.703Z,34.13
2022-08-11T15:40:57.555Z,34.27
2022-08-11T15:44:33.778Z,34.59
2022-08-11T15:48:05.040Z,34.95
2022-08-11T15:51:13.672Z,35.45
2022-08-11T15:54:20.925Z,35.56
2022-08-11T15:57:44.301Z,35.05
2022-08-11T16:01:09.525Z,34.05
2022-08-11T16:04:18.495Z,32.92
2022-08-11T16:07:27.399Z,32.14
2022-08-11T16:10:33.967Z,31.70
2022-08-11T16:13:57.800Z,32.25
2022-08-11T16:17:04.323Z,32.88
2022-08-11T16:20:11.703Z,33.34
2022-08-11T16:23:18.695Z,33.59
2022-08-11T16:27:03.735Z,33.72
2022-08-11T16:29:54.869Z,34.00
2022-08-11T16:33:02.176Z,34.15
2022-08-11T16:36:46.290Z,34.36
2022-08-11T16:39:52.237Z,34.49
2022-08-11T16:43:16.295Z,34.47
2022-08-11T16:46:40.156Z,34.02
2022-08-11T16:49:52.770Z,33.51
2022-08-11T16:53:00.658Z,33.36
2022-08-11T16:56:07.801Z,33.53
2022-08-11T16:59:18.052Z,33.63
2022-08-11T17:02:46.293Z,33.81
2022-08-11T17:06:10.503Z,33.71
2022-08-11T17:09:37.950Z,33.60
2022-08-11T17:13:04.134Z,33.35
2022-08-11T17:16:15.274Z,33.03
2022-08-11T17:20:40.584Z,32.55
2022-08-11T17:23:13.222Z,32.43
2022-08-11T17:26:23.484Z,32.04
2022-08-11T17:29:30.591Z,31.62
2022-08-11T17:32:57.244Z,31.50
2022-08-11T17:36:07.557Z,31.37
2022-08-11T17:39:14.278Z,30.99
2022-08-11T17:42:37.973Z,30.62
2022-08-11T17:46:02.195Z,30.48
2022-08-11T17:49:08.756Z,30.33
2022-08-11T17:52:35.511Z,30.14
2022-08-11T17:55:58.948Z,30.04
2022-08-11T17:59:22.270Z,29.84
2022-08-11T18:02:48.251Z,29.49
2022-08-11T18:05:53.900Z,28.95
2022-08-11T18:09:19.583Z,28.25
2022-08-11T18:12:42.559Z,27.52
2022-08-11T18:16:05.608Z,26.87
2022-08-11T18:19:30.762Z,26.32
2022-08-11T18:22:56.644Z,25.87
2022-08-11T18:26:20.840Z,25.45
2022-08-11T18:29:47.949Z,25.07
2022-08-11T18:36:57.697Z,24.38
2022-08-11T18:40:22.917Z,24.10
2022-08-11T18:43:49.560Z,23.83
2022-08-11T18:47:15.728Z,23.60
2022-08-11T18:50:40.625Z,23.39
2022-08-11T18:54:10.934Z,23.18
2022-08-11T18:57:35.198Z,22.99
2022-08-11T19:01:15.563Z,22.79
2022-08-11T19:04:39.199Z,22.61
2022-08-11T19:08:03.893Z,22.46
2022-08-11T19:11:32.139Z,22.29
2022-08-11T19:14:56.254Z,22.13
2022-08-11T19:18:21.333Z,21.99
2022-08-11T19:21:45.693Z,21.85
2022-08-11T19:25:10.238Z,21.72
2022-08-11T19:28:33.871Z,21.60
2022-08-11T19:32:00.472Z,21.48
2022-08-11T19:35:24.656Z,21.37
2022-08-11T19:38:51.238Z,21.22
2022-08-11T19:42:14.546Z,21.08
2022-08-11T19:45:37.627Z,20.89
2022-08-11T19:49:02.312Z,20.70
2022-08-11T19:52:25.917Z,20.49
2022-08-11T19:55:49.773Z,20.28
2022-08-11T19:59:13.009Z,20.05
2022-08-11T20:02:36.595Z,19.88
2022-08-11T20:06:03.839Z,19.73
2022-08-11T20:09:27.371Z,19.58
2022-08-11T20:13:11.189Z,19.46
2022-08-11T20:16:42.147Z,19.33
2022-08-11T20:20:06.044Z,19.16
2022-08-11T20:23:31.701Z,18.97
2022-08-11T20:26:54.921Z,19.06
2022-08-11T20:30:19.183Z,19.11
2022-08-11T20:33:42.743Z,19.10
2022-08-11T20:37:07.727Z,19.06
2022-08-11T20:40:32.605Z,18.96
2022-08-11T20:44:08.206Z,18.88
2022-08-11T20:47:33.524Z,18.76
2022-08-11T20:51:23.200Z,18.62
2022-08-11T20:54:49.062Z,18.49
2022-08-11T20:58:15.251Z,18.32
2022-08-11T21:01:43.615Z,18.16
2022-08-11T21:05:07.783Z,18.01
2022-08-11T21:08:37.111Z,17.86
2022-08-11T21:12:00.410Z,17.71
2022-08-11T21:15:47.605Z,17.55
2022-08-11T21:19:12.484Z,17.39
2022-08-11T21:22:37.347Z,17.23
2022-08-11T21:26:02.256Z,17.10
2022-08-11T21:29:25.975Z,16.99
2022-08-11T21:32:50.473Z,16.87
2022-08-11T21:36:13.760Z,16.75
2022-08-11T21:39:39.673Z,16.62
2022-08-11T21:43:04.198Z,16.50
2022-08-11T21:46:28.492Z,16.38
2022-08-11T21:49:59.613Z,16.27
2022-08-11T21:53:22.815Z,16.18
2022-08-11T21:56:46.231Z,16.10
2022-08-11T22:00:10.556Z,16.02
2022-08-11T22:03:46.420Z,15.92
2022-08-11T22:07:14.102Z,15.79
2022-08-11T22:10:41.844Z,15.70
2022-08-11T22:14:08.192Z,15.63
2022-08-11T22:17:31.447Z,15.58
2022-08-11T22:20:58.060Z,15.54
2022-08-11T22:24:30.032Z,15.48
2022-08-11T22:27:53.907Z,15.40
2022-08-11T22:31:19.152Z,15.33
2022-08-11T22:34:53.058Z,15.22
2022-08-11T22:38:18.311Z,15.07
2022-08-11T22:41:41.750Z,14.96
2022-08-11T22:45:05.114Z,14.85
2022-08-11T22:48:29.565Z,14.75
2022-08-11T22:51:52.880Z,14.65
2022-08-11T22:55:16.561Z,14.54
2022-08-11T22:58:40.109Z,14.47
2022-08-11T23:02:03.400Z,14.41
2022-08-11T23:05:27.565Z,14.37
2022-08-11T23:08:51.259Z,14.32
2022-08-11T23:12:14.146Z,14.24
2022-08-11T23:15:37.427Z,14.19
2022-08-11T23:19:04.188Z,14.11
2022-08-11T23:22:37.046Z,14.04
2022-08-11T23:26:11.701Z,13.95
2022-08-11T23:29:36.239Z,13.86
2022-08-11T23:33:01.108Z,13.79
2022-08-11T23:36:36.003Z,13.74
2022-08-11T23:40:09.967Z,13.68
2022-08-11T23:43:39.560Z,13.62
2022-08-11T23:47:02.695Z,13.56
2022-08-11T23:50:27.217Z,13.53
2022-08-11T23:53:50.307Z,13.48
2022-08-11T23:57:13.520Z,13.44
